Time;durP1;ratioP1;P1;durP2;ratioP2;P2;SDS_P1;SDS_P2;PMS_P1;PMS_P2;Temp;Humidity;BMP_temperature;BMP_pressure;BME280_temperature;BME280_humidity;BME280_pressure;Samples;Min_cycle;Max_cycle;Signal;HPM_P1;HPM_P2
2023/04/26 00:01:17;;;;;;;;;;;2.30;99.90;;;;;;5042114;28;19928;-78
2023/04/26 00:03:42;;;;;;;;;;;2.30;99.90;;;;;;5076108;28;19924;-78
2023/04/26 00:06:08;;;;;;;;;;;2.30;99.90;;;;;;5070691;28;19940;-78
2023/04/26 00:08:34;;;;;;;;;;;2.30;99.90;;;;;;5050961;28;19925;-78
2023/04/26 00:11:00;;;;;;;;;;;2.40;99.90;;;;;;5075424;28;19958;-77
2023/04/26 00:13:26;;;;;;;;;;;2.30;99.90;;;;;;5077396;28;19924;-78
2023/04/26 00:15:51;;;;;;;;;;;2.30;99.90;;;;;;5062196;28;19924;-78
2023/04/26 00:18:17;;;;;;;;;;;2.30;99.90;;;;;;5075007;28;20402;-78
2023/04/26 00:20:42;;;;;;;;;;;2.30;99.90;;;;;;5047027;28;19925;-77
2023/04/26 00:23:09;;;;;;;;;;;2.40;99.90;;;;;;5094039;28;19953;-77
2023/04/26 00:25:35;;;;;;;;;;;2.40;99.90;;;;;;5078615;28;19982;-78
2023/04/26 00:28:01;;;;;;;;;;;2.50;99.90;;;;;;5094607;28;19963;-78
2023/04/26 00:30:26;;;;;;;;;;;2.50;99.90;;;;;;5053002;28;19925;-77
2023/04/26 00:32:52;;;;;;;;;;;2.60;99.90;;;;;;5058397;28;20012;-78
2023/04/26 00:35:18;;;;;;;;;;;2.60;99.90;;;;;;5062288;28;20145;-78
2023/04/26 00:37:43;;;;;;;;;;;2.70;99.90;;;;;;5077069;28;19924;-78
2023/04/26 00:40:09;;;;;;;;;;;2.80;99.90;;;;;;5090449;28;19924;-77
2023/04/26 00:42:36;;;;;;;;;;;2.90;99.90;;;;;;5079890;28;19924;-77
2023/04/26 00:45:02;;;;;;;;;;;2.90;99.90;;;;;;5077588;28;19964;-78
2023/04/26 00:47:28;;;;;;;;;;;3.00;99.90;;;;;;5077232;28;19928;-78
2023/04/26 00:49:54;;;;;;;;;;;3.10;99.90;;;;;;5059022;28;20017;-78
2023/04/26 00:52:20;;;;;;;;;;;3.10;99.90;;;;;;5113436;28;19975;-78
2023/04/26 00:54:47;;;;;;;;;;;3.20;99.90;;;;;;5064131;28;20332;-77
2023/04/26 00:57:13;;;;;;;;;;;3.20;99.90;;;;;;5061132;28;20458;-78
2023/04/26 00:59:38;;;;;;;;;;;3.20;99.90;;;;;;5091623;28;19975;-78
2023/04/26 01:02:04;;;;;;;;;;;3.30;99.90;;;;;;5058043;28;20430;-77
2023/04/26 01:04:30;;;;;;;;;;;3.30;99.90;;;;;;5065508;28;19970;-78
2023/04/26 01:06:56;;;;;;;;;;;3.30;99.90;;;;;;5078228;28;19988;-78
2023/04/26 01:09:21;;;;;;;;;;;3.30;99.90;;;;;;5094676;28;19924;-78
2023/04/26 01:11:47;;;;;;;;;;;3.40;99.90;;;;;;5075596;28;19931;-78
2023/04/26 01:14:13;;;;;;;;;;;3.40;99.90;;;;;;5061680;28;20010;-78
2023/04/26 01:16:39;;;;;;;;;;;3.50;99.90;;;;;;5079190;28;19928;-77
2023/04/26 01:19:11;;;;;;;;;;;3.50;99.90;;;;;;5065893;28;19950;-78
2023/04/26 01:21:36;;;;;;;;;;;3.60;99.90;;;;;;5059537;28;19956;-77
2023/04/26 01:24:02;;;;;;;;;;;3.60;99.90;;;;;;5077183;28;19924;-77
2023/04/26 01:26:28;;;;;;;;;;;3.60;99.90;;;;;;5077847;28;19981;-77
2023/04/26 01:28:53;;;;;;;;;;;3.60;99.90;;;;;;5093704;28;20283;-77
2023/04/26 01:31:20;;;;;;;;;;;3.60;99.90;;;;;;5088212;28;19967;-78
2023/04/26 01:33:45;;;;;;;;;;;3.60;99.90;;;;;;5073913;28;19992;-78
2023/04/26 01:36:11;;;;;;;;;;;3.60;99.90;;;;;;5092902;28;20023;-78
2023/04/26 01:38:36;;;;;;;;;;;3.60;99.90;;;;;;5090650;28;19925;-78
2023/04/26 01:41:02;;;;;;;;;;;3.50;99.90;;;;;;5092263;28;19935;-77
2023/04/26 01:43:28;;;;;;;;;;;3.50;99.90;;;;;;5110769;28;19987;-78
2023/04/26 01:45:53;;;;;;;;;;;3.30;99.90;;;;;;5075832;28;19990;-77
2023/04/26 01:48:19;;;;;;;;;;;3.30;99.90;;;;;;5073883;28;19925;-77
2023/04/26 01:50:44;;;;;;;;;;;3.20;99.90;;;;;;5075768;28;19980;-77
2023/04/26 01:53:10;;;;;;;;;;;3.20;99.90;;;;;;5091594;28;20062;-77
2023/04/26 01:55:36;;;;;;;;;;;3.10;99.90;;;;;;5075478;28;20027;-77
2023/04/26 01:58:01;;;;;;;;;;;3.00;99.90;;;;;;5076439;28;19932;-77
2023/04/26 02:00:27;;;;;;;;;;;2.90;99.90;;;;;;5074354;28;20418;-77
2023/04/26 02:02:54;;;;;;;;;;;2.90;99.90;;;;;;5076183;28;19990;-77
2023/04/26 02:05:19;;;;;;;;;;;2.90;99.90;;;;;;5093886;28;19932;-77
2023/04/26 02:07:45;;;;;;;;;;;2.90;99.90;;;;;;5094180;28;19928;-78
2023/04/26 02:10:11;;;;;;;;;;;2.80;99.90;;;;;;5089283;28;19959;-77
2023/04/26 02:12:36;;;;;;;;;;;2.80;99.90;;;;;;5093538;28;19928;-78
2023/04/26 02:15:02;;;;;;;;;;;2.80;99.90;;;;;;5092897;28;20606;-78
2023/04/26 02:17:28;;;;;;;;;;;2.70;99.90;;;;;;5077493;28;20019;-77
2023/04/26 02:19:53;;;;;;;;;;;2.70;99.90;;;;;;5092689;28;19925;-77
2023/04/26 02:22:20;;;;;;;;;;;2.70;99.90;;;;;;5075548;28;19932;-78
2023/04/26 02:24:46;;;;;;;;;;;2.70;99.90;;;;;;5093923;28;19925;-78
2023/04/26 02:27:11;;;;;;;;;;;2.60;99.90;;;;;;5059861;28;19931;-77
2023/04/26 02:29:38;;;;;;;;;;;2.60;99.90;;;;;;5077483;28;19931;-77
2023/04/26 02:32:04;;;;;;;;;;;2.60;99.90;;;;;;5090224;28;19935;-77
2023/04/26 02:34:29;;;;;;;;;;;2.50;99.90;;;;;;5040731;28;20329;-78
2023/04/26 02:36:55;;;;;;;;;;;2.50;99.90;;;;;;5092198;28;19932;-78
2023/04/26 02:39:20;;;;;;;;;;;2.40;99.90;;;;;;5055693;28;19925;-78
2023/04/26 02:41:46;;;;;;;;;;;2.40;99.90;;;;;;5091715;28;20105;-77
2023/04/26 02:44:12;;;;;;;;;;;2.40;99.90;;;;;;5039288;28;19952;-77
2023/04/26 02:46:37;;;;;;;;;;;2.40;99.90;;;;;;5092739;28;19928;-77
2023/04/26 02:49:03;;;;;;;;;;;2.30;99.90;;;;;;5091037;28;19925;-78
2023/04/26 02:51:28;;;;;;;;;;;2.30;99.90;;;;;;5072251;28;19928;-78
2023/04/26 02:53:54;;;;;;;;;;;2.40;99.90;;;;;;5106406;28;19924;-77
2023/04/26 02:56:19;;;;;;;;;;;2.40;99.90;;;;;;5073946;28;19967;-78
2023/04/26 02:58:46;;;;;;;;;;;2.40;99.90;;;;;;5075365;28;19929;-77
2023/04/26 03:01:13;;;;;;;;;;;2.40;99.90;;;;;;5103259;28;19939;-78
2023/04/26 03:03:38;;;;;;;;;;;2.30;99.90;;;;;;5092708;28;19951;-77
2023/04/26 03:06:04;;;;;;;;;;;2.40;99.90;;;;;;5071286;28;19928;-78
2023/04/26 03:08:30;;;;;;;;;;;2.30;99.90;;;;;;5074863;28;19939;-77
2023/04/26 03:10:55;;;;;;;;;;;2.30;99.90;;;;;;5060920;28;19928;-78
2023/04/26 03:13:24;;;;;;;;;;;2.30;99.90;;;;;;5039657;28;19931;-78
2023/04/26 03:15:51;;;;;;;;;;;2.30;99.90;;;;;;5089859;28;19925;-78
2023/04/26 03:18:17;;;;;;;;;;;2.30;99.90;;;;;;5092316;28;20425;-77
2023/04/26 03:20:42;;;;;;;;;;;2.30;99.90;;;;;;5070986;28;19925;-77
2023/04/26 03:23:08;;;;;;;;;;;2.20;99.90;;;;;;5090413;28;20124;-77
2023/04/26 03:25:33;;;;;;;;;;;2.20;99.90;;;;;;5074876;28;19924;-77
2023/04/26 03:27:59;;;;;;;;;;;2.20;99.90;;;;;;5076981;28;19939;-77
2023/04/26 03:30:24;;;;;;;;;;;2.20;99.90;;;;;;5081035;28;19986;-78
2023/04/26 03:32:51;;;;;;;;;;;2.20;99.90;;;;;;5079794;28;19935;-78
2023/04/26 03:35:16;;;;;;;;;;;2.20;99.90;;;;;;5075807;28;19924;-77
2023/04/26 03:37:43;;;;;;;;;;;2.20;99.90;;;;;;5073462;28;19936;-78
2023/04/26 03:40:09;;;;;;;;;;;2.30;99.90;;;;;;5091903;28;19928;-78
2023/04/26 03:42:38;;;;;;;;;;;2.30;99.90;;;;;;5054142;28;19924;-78
2023/04/26 03:45:04;;;;;;;;;;;2.30;99.90;;;;;;5074205;28;19924;-77
2023/04/26 03:47:30;;;;;;;;;;;2.40;99.90;;;;;;5074104;28;19967;-77
2023/04/26 03:49:56;;;;;;;;;;;2.40;99.90;;;;;;5077525;28;19967;-77
2023/04/26 03:52:21;;;;;;;;;;;2.50;99.90;;;;;;5062971;28;19924;-78
2023/04/26 03:54:47;;;;;;;;;;;2.50;99.90;;;;;;5094790;28;20004;-78
2023/04/26 03:57:12;;;;;;;;;;;2.50;99.90;;;;;;5092490;28;19932;-78
2023/04/26 03:59:38;;;;;;;;;;;2.40;99.90;;;;;;5095143;28;19985;-77
2023/04/26 04:02:03;;;;;;;;;;;2.40;99.90;;;;;;5076869;28;19924;-77
2023/04/26 04:04:29;;;;;;;;;;;2.40;99.90;;;;;;5072612;28;20687;-77
2023/04/26 04:06:55;;;;;;;;;;;2.30;99.90;;;;;;5029923;28;20195;-77
2023/04/26 04:09:21;;;;;;;;;;;2.30;99.90;;;;;;5060364;28;19924;-78
2023/04/26 04:11:46;;;;;;;;;;;2.30;99.90;;;;;;5078499;28;20016;-77
2023/04/26 04:14:12;;;;;;;;;;;2.30;99.90;;;;;;5095624;28;19924;-77
2023/04/26 04:16:37;;;;;;;;;;;2.40;99.90;;;;;;5092701;28;19925;-77
2023/04/26 04:19:04;;;;;;;;;;;2.40;99.90;;;;;;5093122;28;19931;-78
2023/04/26 04:21:30;;;;;;;;;;;2.40;99.90;;;;;;5079038;28;19978;-78
2023/04/26 04:23:56;;;;;;;;;;;2.40;99.90;;;;;;5065313;28;19928;-78
2023/04/26 04:26:22;;;;;;;;;;;2.40;99.90;;;;;;5078421;28;19986;-78
2023/04/26 04:28:47;;;;;;;;;;;2.40;99.90;;;;;;5075004;28;19931;-78
2023/04/26 04:31:13;;;;;;;;;;;2.30;99.90;;;;;;5094806;28;19950;-78
2023/04/26 04:33:39;;;;;;;;;;;2.30;99.90;;;;;;5078302;28;19929;-78
2023/04/26 04:36:05;;;;;;;;;;;2.30;99.90;;;;;;5076668;28;19928;-78
2023/04/26 04:38:31;;;;;;;;;;;2.30;99.90;;;;;;5060330;28;20631;-78
2023/04/26 04:40:57;;;;;;;;;;;2.40;99.90;;;;;;5061495;28;19995;-78
2023/04/26 04:43:22;;;;;;;;;;;2.30;99.90;;;;;;5060002;28;19924;-78
2023/04/26 04:45:48;;;;;;;;;;;2.30;99.90;;;;;;5088011;28;19940;-78
2023/04/26 04:48:14;;;;;;;;;;;2.40;99.90;;;;;;5078358;28;19993;-78
2023/04/26 04:50:40;;;;;;;;;;;2.50;99.90;;;;;;5074046;28;19946;-77
2023/04/26 04:53:08;;;;;;;;;;;2.50;99.90;;;;;;5077182;28;19932;-78
2023/04/26 04:55:33;;;;;;;;;;;2.60;99.90;;;;;;5069516;28;19928;-78
2023/04/26 04:58:00;;;;;;;;;;;2.80;99.90;;;;;;5093836;28;19935;-78
2023/04/26 05:00:26;;;;;;;;;;;3.10;99.90;;;;;;5057429;28;19980;-78
2023/04/26 05:02:52;;;;;;;;;;;3.40;99.90;;;;;;5076516;28;19928;-78
2023/04/26 05:05:17;;;;;;;;;;;3.90;99.90;;;;;;5059879;28;19932;-78
2023/04/26 05:07:43;;;;;;;;;;;4.30;99.90;;;;;;5076952;28;20050;-78
2023/04/26 05:10:09;;;;;;;;;;;4.70;99.90;;;;;;5091120;28;19976;-78
2023/04/26 05:12:35;;;;;;;;;;;5.00;99.90;;;;;;5086637;28;19931;-78
2023/04/26 05:15:00;;;;;;;;;;;5.20;99.90;;;;;;5063682;28;19924;-78
2023/04/26 05:17:26;;;;;;;;;;;5.40;99.90;;;;;;5062112;28;19924;-78
2023/04/26 05:19:52;;;;;;;;;;;5.60;99.90;;;;;;5059810;28;20372;-78
2023/04/26 05:22:19;;;;;;;;;;;5.60;99.90;;;;;;5077206;28;19954;-78
2023/04/26 05:24:46;;;;;;;;;;;5.60;99.90;;;;;;5077850;28;19925;-78
2023/04/26 05:27:11;;;;;;;;;;;5.70;99.90;;;;;;5077869;28;19924;-78
2023/04/26 05:29:37;;;;;;;;;;;5.90;99.90;;;;;;5060421;28;19924;-78
2023/04/26 05:32:03;;;;;;;;;;;6.00;99.90;;;;;;5074933;28;19970;-78
2023/04/26 05:34:28;;;;;;;;;;;5.90;99.90;;;;;;5043907;28;20003;-79
2023/04/26 05:36:54;;;;;;;;;;;5.80;99.90;;;;;;5094177;28;19928;-78
2023/04/26 05:39:20;;;;;;;;;;;5.60;99.90;;;;;;5061256;28;20451;-78
2023/04/26 05:41:45;;;;;;;;;;;5.50;99.90;;;;;;5077049;28;19987;-79
2023/04/26 05:44:12;;;;;;;;;;;5.40;99.90;;;;;;5059368;28;20281;-78
2023/04/26 05:46:37;;;;;;;;;;;5.30;99.90;;;;;;5068761;28;19925;-78
2023/04/26 05:49:03;;;;;;;;;;;5.30;99.90;;;;;;5058607;28;19950;-78
2023/04/26 05:51:29;;;;;;;;;;;5.30;99.90;;;;;;5077219;28;20408;-78
2023/04/26 05:53:56;;;;;;;;;;;5.30;99.90;;;;;;5074622;28;20391;-78
2023/04/26 05:56:23;;;;;;;;;;;5.40;99.90;;;;;;5040945;28;20330;-78
2023/04/26 05:58:48;;;;;;;;;;;5.40;99.90;;;;;;5090371;28;19970;-78
2023/04/26 06:01:14;;;;;;;;;;;5.30;99.90;;;;;;5076238;28;19924;-79
2023/04/26 06:03:39;;;;;;;;;;;5.30;99.90;;;;;;5075997;28;19986;-78
2023/04/26 06:06:06;;;;;;;;;;;5.40;99.90;;;;;;5039949;28;20012;-78
2023/04/26 06:08:32;;;;;;;;;;;5.40;99.90;;;;;;5060510;28;19925;-79
2023/04/26 06:10:58;;;;;;;;;;;5.50;99.90;;;;;;5075108;28;19932;-78
2023/04/26 06:13:23;;;;;;;;;;;5.60;99.90;;;;;;5056712;28;19987;-79
2023/04/26 06:15:49;;;;;;;;;;;5.70;99.90;;;;;;5065749;28;19929;-79
2023/04/26 06:18:14;;;;;;;;;;;5.80;99.90;;;;;;5094057;28;19924;-79
2023/04/26 06:20:40;;;;;;;;;;;5.80;99.90;;;;;;5073556;28;19929;-78
2023/04/26 06:23:05;;;;;;;;;;;5.90;99.90;;;;;;5076818;28;20314;-78
2023/04/26 06:25:32;;;;;;;;;;;6.00;99.90;;;;;;5072532;28;19958;-79
2023/04/26 06:27:58;;;;;;;;;;;6.10;99.90;;;;;;5109618;28;19924;-78
2023/04/26 06:30:24;;;;;;;;;;;6.20;99.90;;;;;;5076917;28;19935;-78
2023/04/26 06:32:49;;;;;;;;;;;6.30;99.90;;;;;;5076550;28;19978;-78
2023/04/26 06:35:15;;;;;;;;;;;6.30;99.90;;;;;;5091709;28;19924;-78
2023/04/26 06:37:41;;;;;;;;;;;6.60;99.90;;;;;;5075879;28;19949;-79
2023/04/26 06:40:06;;;;;;;;;;;7.00;99.90;;;;;;5059899;28;19935;-79
2023/04/26 06:42:32;;;;;;;;;;;7.50;99.90;;;;;;5095107;28;19924;-78
2023/04/26 06:44:58;;;;;;;;;;;7.90;99.90;;;;;;5056860;28;19925;-78
2023/04/26 06:47:23;;;;;;;;;;;8.00;99.90;;;;;;5090838;28;19996;-78
2023/04/26 06:49:49;;;;;;;;;;;8.20;99.90;;;;;;5089211;28;19928;-79
2023/04/26 06:52:15;;;;;;;;;;;8.60;99.90;;;;;;5043562;28;19924;-79
2023/04/26 06:54:40;;;;;;;;;;;9.10;99.90;;;;;;5086056;28;19932;-80
2023/04/26 06:57:06;;;;;;;;;;;9.30;99.90;;;;;;5040766;28;19930;-79
2023/04/26 06:59:32;;;;;;;;;;;9.20;99.90;;;;;;5075594;28;19998;-79
2023/04/26 07:01:57;;;;;;;;;;;9.20;99.90;;;;;;5060709;28;19929;-79
2023/04/26 07:04:23;;;;;;;;;;;9.20;99.90;;;;;;5072135;28;19932;-79
2023/04/26 07:06:49;;;;;;;;;;;9.20;99.90;;;;;;5072699;28;19928;-79
2023/04/26 07:09:14;;;;;;;;;;;9.20;99.90;;;;;;5089892;28;19924;-79
2023/04/26 07:11:40;;;;;;;;;;;9.10;99.90;;;;;;5076464;28;19935;-79
2023/04/26 07:14:06;;;;;;;;;;;9.20;99.90;;;;;;5076425;28;19924;-79
2023/04/26 07:16:31;;;;;;;;;;;9.30;99.90;;;;;;5036439;28;20636;-79
2023/04/26 07:18:57;;;;;;;;;;;9.40;99.90;;;;;;5072774;28;20375;-78
2023/04/26 07:21:23;;;;;;;;;;;9.60;99.90;;;;;;5059603;28;19932;-81
2023/04/26 07:23:52;;;;;;;;;;;9.80;99.90;;;;;;5095364;28;19928;-79
2023/04/26 07:26:18;;;;;;;;;;;9.90;99.90;;;;;;5063648;28;19939;-78
2023/04/26 07:28:43;;;;;;;;;;;10.00;99.90;;;;;;5041089;28;19925;-79
2023/04/26 07:31:09;;;;;;;;;;;10.10;99.90;;;;;;5069566;28;19932;-79
2023/04/26 07:33:34;;;;;;;;;;;10.10;99.90;;;;;;5094987;28;19925;-79
2023/04/26 07:36:00;;;;;;;;;;;10.00;99.90;;;;;;5079759;28;19931;-79
2023/04/26 07:38:26;;;;;;;;;;;9.80;99.90;;;;;;5092387;28;19928;-79
2023/04/26 07:40:51;;;;;;;;;;;9.70;99.90;;;;;;5087372;28;19935;-79
2023/04/26 07:43:18;;;;;;;;;;;9.70;99.90;;;;;;5072886;28;19925;-79
2023/04/26 07:45:43;;;;;;;;;;;10.00;99.90;;;;;;5056470;28;19925;-80
2023/04/26 07:48:09;;;;;;;;;;;10.50;99.90;;;;;;5079105;28;19928;-80
2023/04/26 07:50:35;;;;;;;;;;;11.10;99.90;;;;;;5092580;28;19924;-80
2023/04/26 07:53:00;;;;;;;;;;;11.20;99.90;;;;;;5077847;28;19931;-80
2023/04/26 07:55:26;;;;;;;;;;;11.10;99.90;;;;;;5077919;28;19932;-79
2023/04/26 07:57:52;;;;;;;;;;;10.80;99.90;;;;;;5078188;28;19989;-79
2023/04/26 08:00:18;;;;;;;;;;;10.50;99.90;;;;;;5072062;28;19973;-78
2023/04/26 08:02:45;;;;;;;;;;;10.30;99.90;;;;;;5078523;28;20467;-79
2023/04/26 08:05:12;;;;;;;;;;;10.20;99.90;;;;;;5080766;28;20546;-81
2023/04/26 08:07:38;;;;;;;;;;;10.10;99.90;;;;;;5062628;28;20083;-80
2023/04/26 08:10:03;;;;;;;;;;;10.10;99.90;;;;;;5075445;28;19931;-80
2023/04/26 08:12:29;;;;;;;;;;;10.10;99.90;;;;;;5079960;28;19989;-80
2023/04/26 08:14:55;;;;;;;;;;;10.30;99.90;;;;;;5078193;28;19979;-81
2023/04/26 08:17:20;;;;;;;;;;;10.40;99.90;;;;;;5043357;28;19929;-80
2023/04/26 08:19:46;;;;;;;;;;;10.50;99.90;;;;;;5089378;28;20498;-80
2023/04/26 08:22:12;;;;;;;;;;;10.50;99.90;;;;;;5052492;28;19928;-80
2023/04/26 08:24:37;;;;;;;;;;;10.40;99.90;;;;;;5092965;28;19929;-80
2023/04/26 08:27:03;;;;;;;;;;;10.30;99.90;;;;;;5072748;28;19955;-80
2023/04/26 08:29:28;;;;;;;;;;;10.20;99.90;;;;;;5060058;28;19928;-80
2023/04/26 08:31:54;;;;;;;;;;;10.20;99.90;;;;;;5077542;28;19946;-80
2023/04/26 08:34:20;;;;;;;;;;;10.00;99.90;;;;;;5077040;28;19931;-81
2023/04/26 08:36:45;;;;;;;;;;;10.00;99.90;;;;;;5094138;28;19924;-80
2023/04/26 08:39:11;;;;;;;;;;;9.80;99.90;;;;;;5075938;28;20792;-80
2023/04/26 08:41:48;;;;;;;;;;;9.70;99.90;;;;;;5073218;28;19951;-80
2023/04/26 08:44:14;;;;;;;;;;;9.60;99.90;;;;;;5092697;28;19944;-80
2023/04/26 08:46:43;;;;;;;;;;;9.50;99.90;;;;;;5092342;28;19974;-80
2023/04/26 08:49:21;;;;;;;;;;;9.50;99.90;;;;;;5077417;28;19959;-80
2023/04/26 08:51:47;;;;;;;;;;;9.50;99.90;;;;;;5093501;28;19935;-81
2023/04/26 08:54:13;;;;;;;;;;;9.60;99.90;;;;;;5069710;28;19924;-81
2023/04/26 08:56:40;;;;;;;;;;;9.60;99.90;;;;;;5087983;28;19928;-80
2023/04/26 08:59:08;;;;;;;;;;;9.70;99.90;;;;;;5074436;28;20189;-81
2023/04/26 09:01:34;;;;;;;;;;;9.70;99.90;;;;;;5043465;28;20460;-81
2023/04/26 09:04:00;;;;;;;;;;;9.80;99.90;;;;;;5064575;28;19928;-80
2023/04/26 09:06:27;;;;;;;;;;;9.90;99.90;;;;;;5075703;28;19936;-81
2023/04/26 09:08:53;;;;;;;;;;;9.90;99.90;;;;;;5059178;28;20000;-81
2023/04/26 09:11:19;;;;;;;;;;;10.00;99.90;;;;;;5073466;28;19932;-80
2023/04/26 09:13:44;;;;;;;;;;;10.20;99.90;;;;;;5065387;28;20673;-80
2023/04/26 09:16:10;;;;;;;;;;;10.50;99.90;;;;;;5072698;28;19924;-80
2023/04/26 09:18:46;;;;;;;;;;;10.70;99.90;;;;;;5074238;28;19925;-81
2023/04/26 09:21:14;;;;;;;;;;;10.60;99.90;;;;;;5054900;28;20003;-81
2023/04/26 09:23:58;;;;;;;;;;;10.50;99.90;;;;;;5107415;28;19939;-81
2023/04/26 09:26:25;;;;;;;;;;;10.40;99.90;;;;;;5075005;28;19929;-82
2023/04/26 09:29:09;;;;;;;;;;;10.30;99.90;;;;;;5075380;28;19932;-81
2023/04/26 09:31:37;;;;;;;;;;;10.30;99.90;;;;;;5054361;28;19980;-81
2023/04/26 09:34:03;;;;;;;;;;;10.40;99.90;;;;;;5058309;28;19932;-81
2023/04/26 09:36:28;;;;;;;;;;;10.80;99.90;;;;;;5074624;28;19932;-81
2023/04/26 09:38:55;;;;;;;;;;;11.30;99.90;;;;;;5060081;28;19968;-81
2023/04/26 09:41:20;;;;;;;;;;;11.70;99.90;;;;;;5075187;28;20414;-82
2023/04/26 09:43:47;;;;;;;;;;;12.00;99.90;;;;;;5060225;28;19963;-81
2023/04/26 09:46:21;;;;;;;;;;;12.20;99.90;;;;;;5056795;28;21241;-81
2023/04/26 09:48:59;;;;;;;;;;;12.60;99.90;;;;;;5055086;28;19935;-82
2023/04/26 09:51:25;;;;;;;;;;;12.90;99.90;;;;;;5063746;28;20464;-82
2023/04/26 09:53:51;;;;;;;;;;;13.10;94.70;;;;;;5074763;28;19931;-81
2023/04/26 09:56:20;;;;;;;;;;;13.20;98.40;;;;;;5085202;28;19925;-82
2023/04/26 09:58:46;;;;;;;;;;;13.30;96.60;;;;;;5055314;28;19963;-81
2023/04/26 10:01:16;;;;;;;;;;;13.50;97.40;;;;;;5082670;28;20315;-82
2023/04/26 10:03:42;;;;;;;;;;;13.70;99.90;;;;;;5090043;28;20343;-82
2023/04/26 10:06:08;;;;;;;;;;;14.10;99.90;;;;;;5087967;28;19968;-81
2023/04/26 10:08:34;;;;;;;;;;;14.30;93.60;;;;;;5064205;28;19924;-81
2023/04/26 10:11:02;;;;;;;;;;;14.20;91.20;;;;;;5069779;28;19935;-82
2023/04/26 10:13:31;;;;;;;;;;;13.80;83.00;;;;;;5093129;28;20030;-82
2023/04/26 10:15:56;;;;;;;;;;;13.30;89.30;;;;;;5058517;28;20367;-82
2023/04/26 10:18:22;;;;;;;;;;;12.70;79.70;;;;;;5090569;28;19928;-82
2023/04/26 10:20:51;;;;;;;;;;;12.20;88.30;;;;;;5094376;28;19924;-82
2023/04/26 10:23:21;;;;;;;;;;;11.80;90.20;;;;;;5057353;28;20392;-81
2023/04/26 10:25:46;;;;;;;;;;;11.40;95.00;;;;;;5076799;28;19925;-82
2023/04/26 10:28:12;;;;;;;;;;;11.10;97.90;;;;;;5090613;28;19982;-82
2023/04/26 10:30:54;;;;;;;;;;;10.70;98.60;;;;;;5091508;28;19928;-81
2023/04/26 10:33:20;;;;;;;;;;;10.50;95.00;;;;;;5075761;28;20329;-81
2023/04/26 10:35:59;;;;;;;;;;;10.20;97.10;;;;;;5093268;28;19928;-81
2023/04/26 10:38:25;;;;;;;;;;;10.10;99.90;;;;;;5089515;28;20375;-81
2023/04/26 10:40:51;;;;;;;;;;;9.90;99.00;;;;;;5071375;28;20283;-81
2023/04/26 10:43:18;;;;;;;;;;;9.70;94.50;;;;;;5088384;28;19984;-81
2023/04/26 10:45:43;;;;;;;;;;;9.50;94.50;;;;;;5074993;28;19984;-81
2023/04/26 10:48:12;;;;;;;;;;;9.40;96.20;;;;;;5075057;28;19979;-81
2023/04/26 10:50:56;;;;;;;;;;;9.30;97.20;;;;;;5052082;28;19924;-80
2023/04/26 10:53:22;;;;;;;;;;;9.20;98.60;;;;;;5048626;28;19928;-81
2023/04/26 10:55:47;;;;;;;;;;;9.20;99.90;;;;;;5092392;28;19981;-81
2023/04/26 10:58:28;;;;;;;;;;;9.10;99.90;;;;;;5073129;28;19956;-80
2023/04/26 11:01:13;;;;;;;;;;;9.00;99.90;;;;;;5086097;28;19972;-81
2023/04/26 11:03:42;;;;;;;;;;;9.00;99.90;;;;;;5071849;28;19929;-80
2023/04/26 11:06:09;;;;;;;;;;;9.00;99.90;;;;;;5057804;28;20375;-80
2023/04/26 11:08:35;;;;;;;;;;;9.10;99.90;;;;;;5058596;28;20299;-80
2023/04/26 11:11:01;;;;;;;;;;;9.10;99.90;;;;;;5037359;28;20435;-80
2023/04/26 11:13:29;;;;;;;;;;;9.20;99.90;;;;;;5091989;28;19966;-80
2023/04/26 11:16:04;;;;;;;;;;;9.30;99.90;;;;;;5074686;28;19929;-80
2023/04/26 11:18:30;;;;;;;;;;;9.50;99.90;;;;;;5057766;28;19971;-80
2023/04/26 11:20:59;;;;;;;;;;;9.70;99.90;;;;;;5075276;28;19924;-80
2023/04/26 11:23:27;;;;;;;;;;;9.90;99.90;;;;;;5056249;28;19959;-80
2023/04/26 11:25:53;;;;;;;;;;;9.90;99.90;;;;;;5055596;28;19936;-80
2023/04/26 11:28:21;;;;;;;;;;;10.00;99.90;;;;;;5092374;28;19975;-80
2023/04/26 11:30:48;;;;;;;;;;;10.00;99.90;;;;;;5056468;28;19924;-80
2023/04/26 11:33:18;;;;;;;;;;;10.10;99.90;;;;;;5067925;28;19924;-81
2023/04/26 11:35:47;;;;;;;;;;;10.20;99.90;;;;;;5063245;28;19928;-80
2023/04/26 11:38:12;;;;;;;;;;;10.20;99.90;;;;;;5077828;28;19992;-80
2023/04/26 11:40:38;;;;;;;;;;;10.20;99.90;;;;;;5039119;28;19982;-81
2023/04/26 11:43:04;;;;;;;;;;;10.30;99.90;;;;;;5103133;28;19975;-80
2023/04/26 11:45:31;;;;;;;;;;;10.40;99.90;;;;;;5074669;28;20018;-81
2023/04/26 11:47:56;;;;;;;;;;;10.60;97.60;;;;;;5068024;28;19943;-80
2023/04/26 11:50:25;;;;;;;;;;;10.60;99.90;;;;;;5087904;28;19932;-81
2023/04/26 11:53:01;;;;;;;;;;;10.80;99.90;;;;;;5089123;28;19940;-81
2023/04/26 11:55:27;;;;;;;;;;;11.00;99.90;;;;;;5075276;28;19929;-81
2023/04/26 11:57:53;;;;;;;;;;;11.10;92.70;;;;;;5090532;28;20478;-81
2023/04/26 12:00:20;;;;;;;;;;;11.10;94.70;;;;;;5090542;28;19984;-81
2023/04/26 12:02:46;;;;;;;;;;;11.10;94.60;;;;;;5062369;28;19924;-82
2023/04/26 12:05:25;;;;;;;;;;;11.00;98.30;;;;;;5089756;28;19928;-81
2023/04/26 12:07:51;;;;;;;;;;;10.90;95.70;;;;;;5057232;28;20454;-80
2023/04/26 12:10:17;;;;;;;;;;;10.90;99.50;;;;;;5076780;28;20327;-81
2023/04/26 12:12:45;;;;;;;;;;;10.80;99.90;;;;;;5068273;28;19924;-81
2023/04/26 12:15:11;;;;;;;;;;;10.70;99.30;;;;;;5093010;28;20437;-80
2023/04/26 12:17:37;;;;;;;;;;;10.50;99.90;;;;;;5077221;28;19947;-80
2023/04/26 12:20:12;;;;;;;;;;;10.40;99.90;;;;;;5075589;28;19924;-80
2023/04/26 12:22:37;;;;;;;;;;;10.20;99.90;;;;;;5076738;28;19932;-80
2023/04/26 12:25:06;;;;;;;;;;;10.00;99.90;;;;;;5086777;28;19979;-80
2023/04/26 12:27:32;;;;;;;;;;;9.90;99.90;;;;;;5049020;28;20583;-80
2023/04/26 12:29:58;;;;;;;;;;;9.80;99.90;;;;;;5047227;28;19992;-81
2023/04/26 12:32:23;;;;;;;;;;;9.60;99.90;;;;;;5093496;28;20416;-80
2023/04/26 12:34:50;;;;;;;;;;;9.60;99.90;;;;;;5062323;28;19932;-80
2023/04/26 12:37:15;;;;;;;;;;;9.60;99.40;;;;;;5067080;28;19936;-80
2023/04/26 12:39:42;;;;;;;;;;;9.60;99.90;;;;;;5077958;28;19924;-80
2023/04/26 12:42:08;;;;;;;;;;;9.60;99.90;;;;;;5058283;28;19928;-80
2023/04/26 12:44:33;;;;;;;;;;;9.60;99.90;;;;;;5076259;28;19928;-80
2023/04/26 12:46:59;;;;;;;;;;;9.70;99.90;;;;;;5077359;28;19950;-80
2023/04/26 12:49:24;;;;;;;;;;;9.80;99.90;;;;;;5094153;28;20438;-80
2023/04/26 12:51:50;;;;;;;;;;;9.90;99.90;;;;;;5059279;28;19995;-80
2023/04/26 12:54:16;;;;;;;;;;;10.10;98.70;;;;;;5061895;28;19925;-80
2023/04/26 12:56:43;;;;;;;;;;;10.30;99.90;;;;;;5060441;28;20387;-80
2023/04/26 12:59:08;;;;;;;;;;;10.40;99.40;;;;;;5077568;28;19932;-80
2023/04/26 13:01:34;;;;;;;;;;;10.40;98.40;;;;;;5092862;28;19929;-80
2023/04/26 13:04:03;;;;;;;;;;;10.50;97.00;;;;;;5076206;28;19956;-80
2023/04/26 13:06:28;;;;;;;;;;;10.50;99.40;;;;;;5094206;28;19925;-80
2023/04/26 13:08:54;;;;;;;;;;;10.50;96.40;;;;;;5060231;28;19971;-80
2023/04/26 13:11:20;;;;;;;;;;;10.60;96.00;;;;;;5059686;28;19924;-80
2023/04/26 13:13:46;;;;;;;;;;;10.60;97.70;;;;;;5092239;28;19963;-81
2023/04/26 13:16:12;;;;;;;;;;;10.60;97.20;;;;;;5064584;28;19925;-80
2023/04/26 13:18:37;;;;;;;;;;;10.70;98.10;;;;;;5092059;28;19970;-80
2023/04/26 13:21:03;;;;;;;;;;;10.80;94.80;;;;;;5076335;28;19925;-80
2023/04/26 13:23:29;;;;;;;;;;;11.00;96.80;;;;;;5090680;28;19924;-81
2023/04/26 13:25:54;;;;;;;;;;;11.10;95.90;;;;;;5045201;28;19925;-80
2023/04/26 13:28:20;;;;;;;;;;;11.10;96.30;;;;;;5093362;28;20013;-81
2023/04/26 13:30:45;;;;;;;;;;;11.10;95.80;;;;;;5077081;28;19964;-80
2023/04/26 13:33:11;;;;;;;;;;;11.10;93.90;;;;;;5071760;28;20003;-81
2023/04/26 13:35:37;;;;;;;;;;;11.00;94.90;;;;;;5059330;28;19932;-80
2023/04/26 13:38:02;;;;;;;;;;;10.80;94.50;;;;;;5094746;28;19997;-80
2023/04/26 13:40:28;;;;;;;;;;;10.80;95.20;;;;;;5060966;28;20299;-80
2023/04/26 13:42:53;;;;;;;;;;;10.80;97.60;;;;;;5095015;28;19931;-80
2023/04/26 13:45:19;;;;;;;;;;;10.80;96.50;;;;;;5093053;28;19935;-80
2023/04/26 13:47:45;;;;;;;;;;;10.80;93.80;;;;;;5076922;28;19924;-80
2023/04/26 13:50:10;;;;;;;;;;;10.80;97.80;;;;;;5094391;28;19982;-81
2023/04/26 13:52:36;;;;;;;;;;;10.70;93.90;;;;;;5077975;28;19931;-80
2023/04/26 13:55:03;;;;;;;;;;;10.70;92.80;;;;;;5095205;28;19925;-80
2023/04/26 13:57:28;;;;;;;;;;;10.60;92.30;;;;;;5077261;28;19929;-80
2023/04/26 13:59:54;;;;;;;;;;;10.50;95.60;;;;;;5076859;28;19925;-80
2023/04/26 14:02:20;;;;;;;;;;;10.50;95.90;;;;;;5077099;28;19931;-80
2023/04/26 14:04:46;;;;;;;;;;;10.50;96.40;;;;;;5094837;28;20019;-80
2023/04/26 14:07:11;;;;;;;;;;;10.40;96.10;;;;;;5040802;28;20386;-80
2023/04/26 14:09:37;;;;;;;;;;;10.30;93.60;;;;;;5070568;28;19936;-80
2023/04/26 14:12:02;;;;;;;;;;;10.20;97.80;;;;;;5077706;28;19928;-80
2023/04/26 14:14:28;;;;;;;;;;;10.10;98.70;;;;;;5060723;28;20477;-80
2023/04/26 14:16:53;;;;;;;;;;;10.00;96.20;;;;;;5090322;28;20687;-80
2023/04/26 14:19:19;;;;;;;;;;;9.90;95.90;;;;;;5066316;28;19940;-80
2023/04/26 14:21:45;;;;;;;;;;;9.90;98.30;;;;;;5059255;28;19929;-81